createdAt,value
2023-02-24T00:01:24.846Z,97628.00
2023-02-24T00:04:00.482Z,97624.00
2023-02-24T00:06:40.171Z,97632.00
2023-02-24T00:09:27.269Z,97628.00
2023-02-24T00:12:12.681Z,97627.00
2023-02-24T00:14:47.528Z,97625.00
2023-02-24T00:17:27.615Z,97625.00
2023-02-24T00:20:05.551Z,97619.00
2023-02-24T00:22:41.480Z,97617.00
2023-02-24T00:25:16.501Z,97618.00
2023-02-24T00:27:53.269Z,97621.00
2023-02-24T00:30:29.706Z,97619.00
2023-02-24T00:33:06.361Z,97608.00
2023-02-24T00:35:41.289Z,97611.00
2023-02-24T00:38:17.193Z,97610.00
2023-02-24T00:40:52.077Z,97608.00
2023-02-24T00:43:27.188Z,97603.00
2023-02-24T00:46:02.541Z,97595.00
2023-02-24T00:48:42.259Z,97594.00
2023-02-24T00:51:23.435Z,97602.00
2023-02-24T00:53:58.375Z,97601.00
2023-02-24T00:56:35.081Z,97596.00
2023-02-24T00:59:13.002Z,97601.00
2023-02-24T01:01:50.459Z,97589.00
2023-02-24T01:04:25.485Z,97597.00
2023-02-24T01:07:00.626Z,97597.00
2023-02-24T01:09:35.581Z,97591.00
2023-02-24T01:12:38.579Z,97596.00
2023-02-24T01:15:13.507Z,97598.00
2023-02-24T01:17:48.502Z,97578.00
2023-02-24T01:20:23.495Z,97578.00
2023-02-24T01:22:58.652Z,97580.00
2023-02-24T01:25:33.536Z,97582.00
2023-02-24T01:28:11.057Z,97578.00
2023-02-24T01:30:46.259Z,97577.00
2023-02-24T01:33:21.811Z,97577.00
2023-02-24T01:35:57.061Z,97576.00
2023-02-24T01:38:31.951Z,97573.00
2023-02-24T01:41:07.055Z,97568.00
2023-02-24T01:44:09.689Z,97566.00
2023-02-24T01:46:48.332Z,97564.00
2023-02-24T01:49:34.176Z,97561.00
2023-02-24T01:52:17.424Z,97551.00
2023-02-24T01:54:58.708Z,97550.00
2023-02-24T01:57:36.786Z,97548.00
2023-02-24T02:00:33.640Z,97550.00
2023-02-24T02:03:15.901Z,97555.00
2023-02-24T02:05:52.935Z,97560.00
2023-02-24T02:08:29.625Z,97548.00
2023-02-24T02:11:10.169Z,97553.00
2023-02-24T02:13:46.768Z,97555.00
2023-02-24T02:16:32.786Z,97547.00
2023-02-24T02:19:32.189Z,97539.00
2023-02-24T02:22:43.073Z,97538.00
2023-02-24T02:26:00.233Z,97533.00
2023-02-24T02:29:10.898Z,97533.00
2023-02-24T02:32:23.823Z,97535.00
2023-02-24T02:35:31.699Z,97533.00
2023-02-24T02:38:38.547Z,97539.00
2023-02-24T02:41:43.565Z,97531.00
2023-02-24T02:44:23.995Z,97524.00
2023-02-24T02:47:13.376Z,97517.00
2023-02-24T02:50:00.654Z,97521.00
2023-02-24T02:52:47.906Z,97500.00
2023-02-24T02:55:47.058Z,97501.00
2023-02-24T02:58:28.040Z,97510.00
2023-02-24T03:01:07.187Z,97504.00
2023-02-24T03:03:51.996Z,97498.00
2023-02-24T03:06:34.610Z,97495.00
2023-02-24T03:09:19.426Z,97498.00
2023-02-24T03:12:08.327Z,97486.00
2023-02-24T03:14:52.110Z,97489.00
2023-02-24T03:17:41.374Z,97486.00
2023-02-24T03:20:56.976Z,97477.00
2023-02-24T03:23:36.688Z,97480.00
2023-02-24T03:26:37.665Z,97476.00
2023-02-24T03:29:37.548Z,97474.00
2023-02-24T03:32:20.457Z,97473.00
2023-02-24T03:35:09.423Z,97465.00
2023-02-24T03:37:47.322Z,97473.00
2023-02-24T03:40:28.602Z,97460.00
2023-02-24T03:43:30.372Z,97473.00
2023-02-24T03:46:06.671Z,97468.00
2023-02-24T03:48:50.153Z,97476.00
2023-02-24T03:51:26.475Z,97465.00
2023-02-24T03:54:44.500Z,97478.00
2023-02-24T03:58:01.001Z,97468.00
2023-02-24T04:00:57.100Z,97466.00
2023-02-24T04:04:09.486Z,97473.00
2023-02-24T04:06:56.334Z,97471.00
2023-02-24T04:09:50.580Z,97468.00
2023-02-24T04:12:37.699Z,97472.00
2023-02-24T04:15:43.608Z,97468.00
2023-02-24T04:18:24.732Z,97475.00
2023-02-24T04:21:03.506Z,97475.00
2023-02-24T04:23:43.162Z,97470.00
2023-02-24T04:26:20.687Z,97470.00
2023-02-24T04:28:56.588Z,97463.00
2023-02-24T04:31:32.972Z,97462.00
2023-02-24T04:34:09.523Z,97467.00
2023-02-24T04:36:50.546Z,97464.00
2023-02-24T04:39:26.404Z,97463.00
2023-02-24T04:42:06.031Z,97461.00
2023-02-24T04:44:42.804Z,97460.00
2023-02-24T04:47:17.748Z,97456.00
2023-02-24T04:49:54.972Z,97447.00
2023-02-24T04:52:30.208Z,97444.00
2023-02-24T04:55:10.097Z,97442.00
2023-02-24T04:57:46.009Z,97446.00
2023-02-24T05:00:22.504Z,97442.00
2023-02-24T05:02:57.599Z,97431.00
2023-02-24T05:05:35.758Z,97433.00
2023-02-24T05:08:11.769Z,97431.00
2023-02-24T05:10:47.567Z,97428.00
2023-02-24T05:13:31.641Z,97421.00
2023-02-24T05:16:09.049Z,97418.00
2023-02-24T05:18:47.311Z,97407.00
2023-02-24T05:21:37.175Z,97401.00
2023-02-24T05:24:12.053Z,97397.00
2023-02-24T05:26:47.094Z,97385.00
2023-02-24T05:29:22.309Z,97394.00
2023-02-24T05:31:59.966Z,97387.00
2023-02-24T05:34:35.133Z,97386.00
2023-02-24T05:37:10.710Z,97386.00
2023-02-24T05:39:45.840Z,97383.00
2023-02-24T05:42:20.696Z,97388.00
2023-02-24T05:44:55.543Z,97379.00
2023-02-24T05:47:30.422Z,97385.00
2023-02-24T05:50:06.204Z,97375.00
2023-02-24T05:52:41.113Z,97373.00
2023-02-24T05:55:16.325Z,97365.00
2023-02-24T05:57:53.118Z,97375.00
2023-02-24T06:00:28.065Z,97369.00
2023-02-24T06:03:08.392Z,97369.00
2023-02-24T06:05:43.953Z,97370.00
2023-02-24T06:08:18.795Z,97368.00
2023-02-24T06:10:53.746Z,97370.00
2023-02-24T06:13:28.599Z,97365.00
2023-02-24T06:16:06.170Z,97367.00
2023-02-24T06:18:42.643Z,97369.00
2023-02-24T06:21:18.446Z,97362.00
2023-02-24T06:23:53.406Z,97358.00
2023-02-24T06:26:33.610Z,97361.00
2023-02-24T06:29:15.736Z,97354.00
2023-02-24T06:31:51.356Z,97360.00
2023-02-24T06:34:27.696Z,97357.00
2023-02-24T06:37:04.220Z,97350.00
2023-02-24T06:39:40.323Z,97354.00
2023-02-24T06:42:15.168Z,97348.00
2023-02-24T06:44:50.333Z,97353.00
2023-02-24T06:47:26.875Z,97351.00
2023-02-24T06:50:01.925Z,97353.00
2023-02-24T06:52:37.040Z,97343.00
2023-02-24T06:55:25.329Z,97343.00
2023-02-24T06:58:04.334Z,97345.00
2023-02-24T07:00:39.352Z,97343.00
2023-02-24T07:03:17.142Z,97349.00
2023-02-24T07:06:10.797Z,97346.00
2023-02-24T07:08:47.042Z,97341.00
2023-02-24T07:11:22.411Z,97339.00
2023-02-24T07:13:59.387Z,97343.00
2023-02-24T07:16:35.729Z,97344.00
2023-02-24T07:19:15.412Z,97339.00
2023-02-24T07:21:52.605Z,97340.00
2023-02-24T07:24:33.604Z,97340.00
2023-02-24T07:27:18.121Z,97330.00
2023-02-24T07:29:53.896Z,97329.00
2023-02-24T07:32:30.442Z,97338.00
2023-02-24T07:35:05.877Z,97332.00
2023-02-24T07:37:41.619Z,97335.00
2023-02-24T07:40:17.450Z,97330.00
2023-02-24T07:42:54.130Z,97332.00
2023-02-24T07:45:29.675Z,97327.00
2023-02-24T07:48:04.604Z,97332.00
2023-02-24T07:50:42.041Z,97328.00
2023-02-24T07:53:18.785Z,97323.00
2023-02-24T07:55:54.297Z,97324.00
2023-02-24T07:58:29.150Z,97322.00
2023-02-24T08:01:08.769Z,97319.00
2023-02-24T08:03:44.909Z,97314.00
2023-02-24T08:06:37.613Z,97316.00
2023-02-24T08:09:20.751Z,97309.00
2023-02-24T08:11:56.445Z,97311.00
2023-02-24T08:14:34.850Z,97306.00
2023-02-24T08:17:10.914Z,97301.00
2023-02-24T08:19:49.116Z,97303.00
2023-02-24T08:22:27.630Z,97302.00
2023-02-24T08:25:08.764Z,97306.00
2023-02-24T08:27:44.841Z,97303.00
2023-02-24T08:30:25.609Z,97302.00
2023-02-24T08:33:00.517Z,97292.00
2023-02-24T08:35:38.621Z,97298.00
2023-02-24T08:38:23.728Z,97296.00
2023-02-24T08:41:04.850Z,97294.00
2023-02-24T08:43:40.990Z,97288.00
2023-02-24T08:46:21.241Z,97286.00
2023-02-24T08:49:00.927Z,97278.00
2023-02-24T08:51:43.608Z,97271.00
2023-02-24T08:54:27.241Z,97277.00
2023-02-24T08:57:08.229Z,97264.00
2023-02-24T08:59:49.802Z,97261.00
2023-02-24T09:02:29.485Z,97259.00
2023-02-24T09:05:13.153Z,97260.00
2023-02-24T09:07:54.643Z,97261.00
2023-02-24T09:10:29.574Z,97260.00
2023-02-24T09:13:08.578Z,97263.00
2023-02-24T09:15:44.172Z,97260.00
2023-02-24T09:18:19.017Z,97254.00
2023-02-24T09:20:56.747Z,97257.00
2023-02-24T09:23:45.806Z,97262.00
2023-02-24T09:26:20.786Z,97246.00
2023-02-24T09:28:55.875Z,97253.00
2023-02-24T09:31:40.698Z,97249.00
2023-02-24T09:34:18.422Z,97246.00
2023-02-24T09:37:02.996Z,97249.00
2023-02-24T09:39:55.902Z,97238.00
2023-02-24T09:42:46.241Z,97246.00
2023-02-24T09:45:33.373Z,97232.00
2023-02-24T09:48:23.314Z,97229.00
2023-02-24T09:51:10.488Z,97229.00
2023-02-24T09:53:52.502Z,97219.00
2023-02-24T09:56:37.117Z,97218.00
2023-02-24T10:00:00.815Z,97216.00
2023-02-24T10:02:59.986Z,97217.00
2023-02-24T10:06:12.209Z,97211.00
2023-02-24T10:09:11.374Z,97211.00
2023-02-24T10:12:05.820Z,97210.00
2023-02-24T10:15:18.864Z,97205.00
2023-02-24T10:17:57.454Z,97207.00
2023-02-24T10:20:45.647Z,97205.00
2023-02-24T10:23:56.432Z,97202.00
2023-02-24T10:26:59.977Z,97216.00
2023-02-24T10:30:19.714Z,97216.00
2023-02-24T10:32:58.757Z,97209.00
2023-02-24T10:35:36.654Z,97208.00
2023-02-24T10:38:11.653Z,97209.00
2023-02-24T10:40:56.635Z,97205.00
2023-02-24T10:43:33.746Z,97199.00
2023-02-24T10:46:39.998Z,97195.00
2023-02-24T10:49:17.271Z,97189.00
2023-02-24T10:51:53.439Z,97187.00
2023-02-24T10:54:44.779Z,97190.00
2023-02-24T10:57:38.258Z,97181.00
2023-02-24T11:00:32.741Z,97181.00
2023-02-24T11:03:19.477Z,97178.00
2023-02-24T11:06:08.247Z,97166.00
2023-02-24T11:08:48.733Z,97164.00
2023-02-24T11:11:54.392Z,97162.00
2023-02-24T11:14:48.165Z,97160.00
2023-02-24T11:17:27.104Z,97156.00
2023-02-24T11:20:13.370Z,97151.00
2023-02-24T11:22:52.404Z,97154.00
2023-02-24T11:25:36.971Z,97148.00
2023-02-24T11:28:33.003Z,97137.00
2023-02-24T11:31:29.483Z,97134.00
2023-02-24T11:34:29.064Z,97119.00
2023-02-24T11:37:34.394Z,97120.00
2023-02-24T11:40:16.250Z,97112.00
2023-02-24T11:43:05.040Z,97115.00
2023-02-24T11:45:54.260Z,97109.00
2023-02-24T11:48:39.562Z,97105.00
2023-02-24T11:51:23.382Z,97095.00
2023-02-24T11:54:06.407Z,97078.00
2023-02-24T11:56:53.598Z,97070.00
2023-02-24T12:00:13.355Z,97056.00
2023-02-24T12:02:55.514Z,97045.00
2023-02-24T12:05:43.802Z,97045.00
2023-02-24T12:08:33.213Z,97047.00
2023-02-24T12:11:33.684Z,97045.00
2023-02-24T12:14:34.615Z,97039.00
2023-02-24T12:17:40.060Z,97036.00
2023-02-24T12:20:42.095Z,97016.00
2023-02-24T12:23:23.047Z,97014.00
2023-02-24T12:26:20.837Z,96997.00
2023-02-24T12:29:16.219Z,96987.00
2023-02-24T12:32:15.803Z,96988.00
2023-02-24T12:35:19.850Z,96987.00
2023-02-24T12:38:32.324Z,96981.00
2023-02-24T12:41:30.354Z,96977.00
2023-02-24T12:44:30.317Z,96971.00
2023-02-24T12:47:12.812Z,96974.00
2023-02-24T12:50:06.798Z,96966.00
2023-02-24T12:52:53.981Z,96964.00
2023-02-24T12:55:51.829Z,96959.00
2023-02-24T12:58:33.090Z,96959.00
2023-02-24T13:01:26.670Z,96961.00
2023-02-24T13:04:34.621Z,96957.00
2023-02-24T13:07:17.354Z,96956.00
2023-02-24T13:10:08.167Z,96968.00
2023-02-24T13:13:04.128Z,96962.00
2023-02-24T13:15:52.325Z,96952.00
2023-02-24T13:18:31.826Z,96940.00
2023-02-24T13:21:10.135Z,96933.00
2023-02-24T13:24:01.004Z,96932.00
2023-02-24T13:26:36.001Z,96935.00
2023-02-24T13:29:13.836Z,96923.00
2023-02-24T13:31:53.212Z,96927.00
2023-02-24T13:34:42.011Z,96919.00
2023-02-24T13:37:37.637Z,96922.00
2023-02-24T13:40:18.266Z,96902.00
2023-02-24T13:42:57.766Z,96910.00
2023-02-24T13:45:39.776Z,96904.00
2023-02-24T13:48:27.482Z,96890.00
2023-02-24T13:51:21.418Z,96887.00
2023-02-24T13:54:29.754Z,96880.00
2023-02-24T13:57:08.993Z,96876.00
2023-02-24T14:00:09.971Z,96877.00
2023-02-24T14:02:46.866Z,96871.00
2023-02-24T14:05:27.057Z,96864.00
2023-02-24T14:08:04.694Z,96867.00
2023-02-24T14:10:45.872Z,96871.00
2023-02-24T14:13:27.919Z,96871.00
2023-02-24T14:16:09.214Z,96877.00
2023-02-24T14:19:01.641Z,96870.00
2023-02-24T14:21:36.556Z,96861.00
2023-02-24T14:24:13.189Z,96855.00
2023-02-24T14:26:55.936Z,96860.00
2023-02-24T14:29:43.634Z,96862.00
2023-02-24T14:32:26.246Z,96855.00
2023-02-24T14:35:01.225Z,96850.00
2023-02-24T14:37:36.398Z,96846.00
2023-02-24T14:40:16.002Z,96837.00
2023-02-24T14:42:51.765Z,96842.00
2023-02-24T14:45:29.110Z,96831.00
2023-02-24T14:48:04.146Z,96822.00
2023-02-24T14:50:39.075Z,96818.00
2023-02-24T14:53:18.661Z,96821.00
2023-02-24T14:55:57.051Z,96828.00
2023-02-24T14:58:50.747Z,96822.00
2023-02-24T15:01:34.050Z,96818.00
2023-02-24T15:04:37.638Z,96811.00
2023-02-24T15:07:24.497Z,96812.00
2023-02-24T15:10:01.214Z,96807.00
2023-02-24T15:12:47.583Z,96799.00
2023-02-24T15:15:28.589Z,96806.00
2023-02-24T15:18:14.455Z,96801.00
2023-02-24T15:21:07.258Z,96795.00
2023-02-24T15:23:42.098Z,96789.00
2023-02-24T15:26:35.227Z,96785.00
2023-02-24T15:29:25.711Z,96780.00
2023-02-24T15:32:04.149Z,96774.00
2023-02-24T15:34:39.211Z,96764.00
2023-02-24T15:37:28.477Z,96778.00
2023-02-24T15:40:20.893Z,96773.00
2023-02-24T15:43:10.686Z,96769.00
2023-02-24T15:45:46.556Z,96767.00
2023-02-24T15:48:26.797Z,96766.00
2023-02-24T15:51:05.643Z,96761.00
2023-02-24T15:53:40.579Z,96754.00
2023-02-24T15:56:17.175Z,96753.00
2023-02-24T15:58:52.583Z,96751.00
2023-02-24T16:01:27.560Z,96758.00
2023-02-24T16:04:04.778Z,96749.00
2023-02-24T16:06:53.919Z,96753.00
2023-02-24T16:09:37.538Z,96751.00
2023-02-24T16:12:21.759Z,96742.00
2023-02-24T16:15:02.482Z,96742.00
2023-02-24T16:17:40.861Z,96731.00
2023-02-24T16:20:28.422Z,96726.00
2023-02-24T16:23:05.467Z,96725.00
2023-02-24T16:25:45.487Z,96747.00
2023-02-24T16:28:22.565Z,96744.00
2023-02-24T16:30:57.480Z,96745.00
2023-02-24T16:33:48.070Z,96741.00
2023-02-24T16:36:28.777Z,96734.00
2023-02-24T16:39:05.093Z,96741.00
2023-02-24T16:41:40.598Z,96733.00
2023-02-24T16:44:15.483Z,96733.00
2023-02-24T16:46:51.630Z,96739.00
2023-02-24T16:49:26.457Z,96735.00
2023-02-24T16:52:01.331Z,96733.00
2023-02-24T16:54:36.320Z,96729.00
2023-02-24T16:57:11.732Z,96714.00
2023-02-24T16:59:46.633Z,96717.00
2023-02-24T17:02:24.914Z,96721.00
2023-02-24T17:04:59.730Z,96726.00
2023-02-24T17:07:39.184Z,96718.00
2023-02-24T17:10:14.737Z,96720.00
2023-02-24T17:12:50.118Z,96731.00
2023-02-24T17:15:25.646Z,96719.00
2023-02-24T17:18:00.581Z,96729.00
2023-02-24T17:20:38.765Z,96733.00
2023-02-24T17:23:13.678Z,96724.00
2023-02-24T17:25:56.465Z,96735.00
2023-02-24T17:28:32.441Z,96735.00
2023-02-24T17:31:07.623Z,96739.00
2023-02-24T17:33:42.642Z,96744.00
2023-02-24T17:36:17.559Z,96739.00
2023-02-24T17:38:53.011Z,96749.00
2023-02-24T17:41:27.910Z,96739.00
2023-02-24T17:44:02.907Z,96741.00
2023-02-24T17:46:38.072Z,96742.00
2023-02-24T17:49:13.481Z,96747.00
2023-02-24T17:51:48.584Z,96741.00
2023-02-24T17:54:23.428Z,96741.00
2023-02-24T17:56:58.318Z,96728.00
2023-02-24T17:59:33.155Z,96734.00
2023-02-24T18:02:10.821Z,96735.00
2023-02-24T18:04:45.762Z,96727.00
2023-02-24T18:07:25.054Z,96732.00
2023-02-24T18:10:00.193Z,96732.00
2023-02-24T18:12:35.176Z,96739.00
2023-02-24T18:15:10.937Z,96735.00
2023-02-24T18:17:46.240Z,96731.00
2023-02-24T18:20:21.271Z,96736.00
2023-02-24T18:22:56.172Z,96740.00
2023-02-24T18:25:31.108Z,96735.00
2023-02-24T18:28:06.415Z,96739.00
2023-02-24T18:30:41.381Z,96732.00
2023-02-24T18:33:16.446Z,96726.00
2023-02-24T18:35:59.771Z,96717.00
2023-02-24T18:38:34.871Z,96726.00
2023-02-24T18:41:23.248Z,96727.00
2023-02-24T18:43:59.258Z,96732.00
2023-02-24T18:46:34.480Z,96747.00
2023-02-24T18:49:10.205Z,96740.00
2023-02-24T18:51:46.445Z,96733.00
2023-02-24T18:54:21.450Z,96740.00
2023-02-24T18:56:56.433Z,96748.00
2023-02-24T18:59:31.507Z,96760.00
2023-02-24T19:02:06.577Z,96753.00
2023-02-24T19:04:41.517Z,96748.00
2023-02-24T19:07:16.736Z,96730.00
2023-02-24T19:09:51.843Z,96735.00
2023-02-24T19:12:26.725Z,96733.00
2023-02-24T19:15:02.773Z,96728.00
2023-02-24T19:17:38.327Z,96740.00
2023-02-24T19:20:16.442Z,96741.00
2023-02-24T19:22:51.798Z,96741.00
2023-02-24T19:25:26.911Z,96747.00
2023-02-24T19:28:01.839Z,96735.00
2023-02-24T19:30:39.953Z,96752.00
2023-02-24T19:33:15.892Z,96745.00
2023-02-24T19:35:53.225Z,96744.00
2023-02-24T19:38:28.438Z,96735.00
2023-02-24T19:41:03.707Z,96736.00
2023-02-24T19:43:41.686Z,96757.00
2023-02-24T19:46:17.642Z,96746.00
2023-02-24T19:48:52.628Z,96744.00
2023-02-24T19:51:28.291Z,96743.00
2023-02-24T19:54:05.766Z,96744.00
2023-02-24T19:56:40.835Z,96733.00
2023-02-24T19:59:16.446Z,96725.00
2023-02-24T20:01:52.345Z,96721.00
2023-02-24T20:04:27.307Z,96724.00
2023-02-24T20:07:02.264Z,96715.00
2023-02-24T20:09:37.641Z,96721.00
2023-02-24T20:12:12.604Z,96731.00
2023-02-24T20:14:47.434Z,96724.00
2023-02-24T20:17:22.646Z,96731.00
2023-02-24T20:19:57.529Z,96734.00
2023-02-24T20:22:32.465Z,96732.00
2023-02-24T20:25:08.383Z,96744.00
2023-02-24T20:27:43.550Z,96730.00
2023-02-24T20:30:18.699Z,96744.00
2023-02-24T20:32:54.052Z,96747.00
2023-02-24T20:35:30.409Z,96756.00
2023-02-24T20:38:05.446Z,96749.00
2023-02-24T20:40:40.490Z,96747.00
2023-02-24T20:43:15.402Z,96748.00
2023-02-24T20:45:50.299Z,96755.00
2023-02-24T20:48:26.257Z,96753.00
2023-02-24T20:51:04.956Z,96754.00
2023-02-24T20:53:55.894Z,96767.00
2023-02-24T20:56:36.380Z,96773.00
2023-02-24T20:59:18.905Z,96772.00
2023-02-24T21:01:54.917Z,96776.00
2023-02-24T21:04:29.947Z,96773.00
2023-02-24T21:07:04.934Z,96780.00
2023-02-24T21:09:39.894Z,96789.00
2023-02-24T21:12:14.754Z,96804.00
2023-02-24T21:14:49.661Z,96810.00
2023-02-24T21:17:24.659Z,96820.00
2023-02-24T21:20:01.562Z,96813.00
2023-02-24T21:22:39.093Z,96818.00
2023-02-24T21:25:14.038Z,96826.00
2023-02-24T21:27:48.939Z,96833.00
2023-02-24T21:30:23.815Z,96823.00
2023-02-24T21:32:58.780Z,96818.00
2023-02-24T21:35:33.844Z,96838.00
2023-02-24T21:38:09.352Z,96835.00
2023-02-24T21:40:45.099Z,96837.00
2023-02-24T21:43:21.637Z,96839.00
2023-02-24T21:46:00.830Z,96856.00
2023-02-24T21:48:36.948Z,96853.00
2023-02-24T21:51:14.085Z,96864.00
2023-02-24T21:53:49.664Z,96857.00
2023-02-24T21:56:28.225Z,96866.00
2023-02-24T21:59:06.981Z,96867.00
2023-02-24T22:01:44.373Z,96866.00
2023-02-24T22:04:20.111Z,96881.00
2023-02-24T22:06:54.998Z,96863.00
2023-02-24T22:09:30.767Z,96872.00
2023-02-24T22:12:06.473Z,96870.00
2023-02-24T22:14:41.341Z,96865.00
2023-02-24T22:17:16.214Z,96865.00
2023-02-24T22:19:51.338Z,96869.00
2023-02-24T22:22:26.345Z,96871.00
2023-02-24T22:25:01.392Z,96876.00
2023-02-24T22:27:36.588Z,96867.00
2023-02-24T22:30:12.044Z,96872.00
2023-02-24T22:32:47.156Z,96880.00
2023-02-24T22:35:22.066Z,96869.00
2023-02-24T22:37:57.314Z,96876.00
2023-02-24T22:40:32.361Z,96871.00
2023-02-24T22:43:07.502Z,96873.00
2023-02-24T22:45:42.507Z,96873.00
2023-02-24T22:48:17.538Z,96861.00
2023-02-24T22:50:56.475Z,96868.00
2023-02-24T22:53:34.670Z,96861.00
2023-02-24T22:56:12.914Z,96867.00
2023-02-24T22:58:48.058Z,96869.00
2023-02-24T23:01:30.577Z,96874.00
2023-02-24T23:04:11.087Z,96880.00
2023-02-24T23:06:47.531Z,96896.00
2023-02-24T23:09:22.811Z,96897.00
2023-02-24T23:11:57.760Z,96882.00
2023-02-24T23:14:32.774Z,96890.00
2023-02-24T23:17:08.570Z,96889.00
2023-02-24T23:19:43.723Z,96894.00
2023-02-24T23:22:19.099Z,96886.00
2023-02-24T23:24:54.097Z,96896.00
2023-02-24T23:27:29.038Z,96889.00
2023-02-24T23:30:09.665Z,96897.00
2023-02-24T23:32:44.695Z,96901.00
2023-02-24T23:35:19.668Z,96893.00
2023-02-24T23:37:54.834Z,96889.00
2023-02-24T23:40:32.191Z,96895.00
2023-02-24T23:43:13.045Z,96899.00
2023-02-24T23:45:47.984Z,96904.00
2023-02-24T23:48:24.180Z,96908.00
2023-02-24T23:51:02.486Z,96908.00
2023-02-24T23:53:43.708Z,96906.00
2023-02-24T23:56:25.662Z,96909.00
2023-02-24T23:59:00.570Z,96918.00
